sensor_id;sensor_type;location;lat;lon;timestamp;pressure;altitude;pressure_sealevel;temperature;humidity
19447;BME280;9862;49.462;11.054;2023-06-10T00:02:22;97763.44;;;21.06;100.00
19447;BME280;9862;49.462;11.054;2023-06-10T00:04:50;97766.69;;;21.03;100.00
19447;BME280;9862;49.462;11.054;2023-06-10T00:07:17;97767.25;;;21.00;100.00
19447;BME280;9862;49.462;11.054;2023-06-10T00:09:44;97761.25;;;21.03;100.00
19447;BME280;9862;49.462;11.054;2023-06-10T00:12:11;97766.44;;;21.00;100.00
19447;BME280;9862;49.462;11.054;2023-06-10T00:14:39;97769.44;;;20.98;100.00
19447;BME280;9862;49.462;11.054;2023-06-10T00:17:06;97758.09;;;20.96;100.00
19447;BME280;9862;49.462;11.054;2023-06-10T00:19:35;97758.09;;;20.96;100.00
19447;BME280;9862;49.462;11.054;2023-06-10T00:22:03;97760.81;;;20.96;100.00
19447;BME280;9862;49.462;11.054;2023-06-10T00:24:30;97755.09;;;20.98;100.00
19447;BME280;9862;49.462;11.054;2023-06-10T00:26:56;97756.19;;;20.97;100.00
19447;BME280;9862;49.462;11.054;2023-06-10T00:29:23;97760.03;;;20.91;100.00
19447;BME280;9862;49.462;11.054;2023-06-10T00:31:50;97762.50;;;20.87;100.00
19447;BME280;9862;49.462;11.054;2023-06-10T00:34:19;97761.16;;;20.84;100.00
19447;BME280;9862;49.462;11.054;2023-06-10T00:36:46;97763.03;;;20.84;100.00
19447;BME280;9862;49.462;11.054;2023-06-10T00:39:14;97766.03;;;20.82;100.00
19447;BME280;9862;49.462;11.054;2023-06-10T00:41:42;97762.00;;;20.80;100.00
19447;BME280;9862;49.462;11.054;2023-06-10T00:44:08;97767.97;;;20.77;100.00
19447;BME280;9862;49.462;11.054;2023-06-10T00:46:35;97759.84;;;20.77;100.00
19447;BME280;9862;49.462;11.054;2023-06-10T00:49:02;97757.69;;;20.74;100.00
19447;BME280;9862;49.462;11.054;2023-06-10T00:51:29;97762.28;;;20.73;100.00
19447;BME280;9862;49.462;11.054;2023-06-10T00:53:56;97757.19;;;20.72;100.00
19447;BME280;9862;49.462;11.054;2023-06-10T00:56:25;97759.88;;;20.72;100.00
19447;BME280;9862;49.462;11.054;2023-06-10T00:58:52;97758.25;;;20.71;100.00
19447;BME280;9862;49.462;11.054;2023-06-10T01:01:18;97771.19;;;20.79;100.00
19447;BME280;9862;49.462;11.054;2023-06-10T01:03:45;97756.75;;;20.94;100.00
19447;BME280;9862;49.462;11.054;2023-06-10T01:06:20;97758.78;;;20.78;100.00
19447;BME280;9862;49.462;11.054;2023-06-10T01:08:55;97759.50;;;20.44;100.00
19447;BME280;9862;49.462;11.054;2023-06-10T01:11:29;97756.34;;;20.17;100.00
19447;BME280;9862;49.462;11.054;2023-06-10T01:14:01;97766.47;;;19.91;100.00
19447;BME280;9862;49.462;11.054;2023-06-10T01:16:28;97767.88;;;19.73;100.00
19447;BME280;9862;49.462;11.054;2023-06-10T01:18:55;97760.88;;;19.57;100.00
19447;BME280;9862;49.462;11.054;2023-06-10T01:21:23;97766.81;;;19.54;100.00
19447;BME280;9862;49.462;11.054;2023-06-10T01:23:52;97763.31;;;19.43;100.00
19447;BME280;9862;49.462;11.054;2023-06-10T01:26:24;97769.25;;;19.35;100.00
19447;BME280;9862;49.462;11.054;2023-06-10T01:28:54;97767.09;;;19.27;100.00
19447;BME280;9862;49.462;11.054;2023-06-10T01:31:30;97766.53;;;19.30;100.00
19447;BME280;9862;49.462;11.054;2023-06-10T01:34:03;97762.22;;;19.49;100.00
19447;BME280;9862;49.462;11.054;2023-06-10T01:36:35;97772.19;;;19.49;100.00
19447;BME280;9862;49.462;11.054;2023-06-10T01:39:04;97766.25;;;19.47;100.00
19447;BME280;9862;49.462;11.054;2023-06-10T01:41:31;97760.63;;;19.33;100.00
19447;BME280;9862;49.462;11.054;2023-06-10T01:43:58;97774.41;;;19.31;100.00
19447;BME280;9862;49.462;11.054;2023-06-10T01:46:24;97777.34;;;19.30;100.00
19447;BME280;9862;49.462;11.054;2023-06-10T01:48:51;97773.59;;;19.21;100.00
19447;BME280;9862;49.462;11.054;2023-06-10T01:51:18;97770.88;;;19.15;100.00
19447;BME280;9862;49.462;11.054;2023-06-10T01:53:46;97773.56;;;19.10;100.00
19447;BME280;9862;49.462;11.054;2023-06-10T01:56:13;97769.53;;;19.18;100.00
19447;BME280;9862;49.462;11.054;2023-06-10T01:58:43;97776.00;;;19.32;100.00
19447;BME280;9862;49.462;11.054;2023-06-10T02:01:10;97776.28;;;19.26;100.00
19447;BME280;9862;49.462;11.054;2023-06-10T02:03:37;97778.19;;;19.30;100.00
19447;BME280;9862;49.462;11.054;2023-06-10T02:06:04;97782.47;;;19.16;100.00
19447;BME280;9862;49.462;11.054;2023-06-10T02:08:31;97772.25;;;19.13;100.00
19447;BME280;9862;49.462;11.054;2023-06-10T02:10:59;97771.16;;;19.14;100.00
19447;BME280;9862;49.462;11.054;2023-06-10T02:13:28;97767.91;;;19.17;100.00
19447;BME280;9862;49.462;11.054;2023-06-10T02:15:54;97774.41;;;19.31;100.00
19447;BME280;9862;49.462;11.054;2023-06-10T02:18:22;97758.19;;;19.52;100.00
19447;BME280;9862;49.462;11.054;2023-06-10T02:20:50;97760.31;;;19.55;100.00
19447;BME280;9862;49.462;11.054;2023-06-10T02:23:19;97766.84;;;19.33;100.00
19447;BME280;9862;49.462;11.054;2023-06-10T02:25:46;97762.81;;;19.21;100.00
19447;BME280;9862;49.462;11.054;2023-06-10T02:28:14;97769.00;;;19.11;100.00
19447;BME280;9862;49.462;11.054;2023-06-10T02:30:41;97766.28;;;19.06;100.00
19447;BME280;9862;49.462;11.054;2023-06-10T02:33:09;97765.47;;;19.26;100.00
19447;BME280;9862;49.462;11.054;2023-06-10T02:35:36;97771.44;;;19.12;100.00
19447;BME280;9862;49.462;11.054;2023-06-10T02:38:02;97770.59;;;18.97;100.00
19447;BME280;9862;49.462;11.054;2023-06-10T02:40:29;97777.59;;;18.87;100.00
19447;BME280;9862;49.462;11.054;2023-06-10T02:42:56;97774.66;;;18.84;100.00
19447;BME280;9862;49.462;11.054;2023-06-10T02:45:25;97781.66;;;18.90;100.00
19447;BME280;9862;49.462;11.054;2023-06-10T02:47:51;97774.38;;;19.01;100.00
19447;BME280;9862;49.462;11.054;2023-06-10T02:50:18;97772.75;;;19.10;100.00
19447;BME280;9862;49.462;11.054;2023-06-10T02:52:45;97780.31;;;18.93;100.00
19447;BME280;9862;49.462;11.054;2023-06-10T02:55:12;97773.28;;;18.76;100.00
19447;BME280;9862;49.462;11.054;2023-06-10T02:57:38;97784.06;;;18.66;100.00
19447;BME280;9862;49.462;11.054;2023-06-10T03:00:06;97786.50;;;18.73;100.00
19447;BME280;9862;49.462;11.054;2023-06-10T03:02:38;97787.31;;;18.78;100.00
19447;BME280;9862;49.462;11.054;2023-06-10T03:05:05;97787.31;;;18.88;100.00
19447;BME280;9862;49.462;11.054;2023-06-10T03:07:35;97789.22;;;19.03;100.00
19447;BME280;9862;49.462;11.054;2023-06-10T03:10:02;97791.63;;;19.00;100.00
19447;BME280;9862;49.462;11.054;2023-06-10T03:12:29;97784.09;;;18.92;100.00
19447;BME280;9862;49.462;11.054;2023-06-10T03:14:55;97794.31;;;18.79;100.00
19447;BME280;9862;49.462;11.054;2023-06-10T03:17:22;97795.88;;;18.55;100.00
19447;BME280;9862;49.462;11.054;2023-06-10T03:19:50;97779.94;;;18.43;100.00
19447;BME280;9862;49.462;11.054;2023-06-10T03:22:17;97792.03;;;18.36;100.00
19447;BME280;9862;49.462;11.054;2023-06-10T03:24:43;97786.88;;;18.24;100.00
19447;BME280;9862;49.462;11.054;2023-06-10T03:27:12;97788.22;;;18.31;100.00
19447;BME280;9862;49.462;11.054;2023-06-10T03:29:40;97784.53;;;18.58;100.00
19447;BME280;9862;49.462;11.054;2023-06-10T03:32:07;97782.88;;;18.42;100.00
19447;BME280;9862;49.462;11.054;2023-06-10T03:34:34;97782.84;;;18.31;100.00
19447;BME280;9862;49.462;11.054;2023-06-10T03:37:02;97792.81;;;18.26;100.00
19447;BME280;9862;49.462;11.054;2023-06-10T03:39:28;97789.03;;;18.32;100.00
19447;BME280;9862;49.462;11.054;2023-06-10T03:41:55;97784.22;;;18.39;100.00
19447;BME280;9862;49.462;11.054;2023-06-10T03:44:24;97790.41;;;18.35;100.00
19447;BME280;9862;49.462;11.054;2023-06-10T03:46:51;97790.66;;;18.28;100.00
19447;BME280;9862;49.462;11.054;2023-06-10T03:49:17;97788.78;;;18.34;100.00
19447;BME280;9862;49.462;11.054;2023-06-10T03:51:44;97796.38;;;18.47;100.00
19447;BME280;9862;49.462;11.054;2023-06-10T03:54:12;97795.88;;;18.60;100.00
19447;BME280;9862;49.462;11.054;2023-06-10T03:56:39;97803.19;;;18.65;100.00
19447;BME280;9862;49.462;11.054;2023-06-10T03:59:05;97797.38;;;18.30;100.00
19447;BME280;9862;49.462;11.054;2023-06-10T04:01:32;97798.34;;;18.04;100.00
19447;BME280;9862;49.462;11.054;2023-06-10T04:03:58;97805.84;;;17.92;100.00
19447;BME280;9862;49.462;11.054;2023-06-10T04:06:26;97795.13;;;18.02;100.00
19447;BME280;9862;49.462;11.054;2023-06-10T04:08:54;97801.59;;;18.06;100.00
19447;BME280;9862;49.462;11.054;2023-06-10T04:11:23;97797.78;;;17.97;100.00
19447;BME280;9862;49.462;11.054;2023-06-10T04:13:50;97798.28;;;17.94;100.00
19447;BME280;9862;49.462;11.054;2023-06-10T04:16:17;97795.38;;;17.95;100.00
19447;BME280;9862;49.462;11.054;2023-06-10T04:18:43;97800.97;;;17.89;100.00
19447;BME280;9862;49.462;11.054;2023-06-10T04:21:10;97805.56;;;17.88;100.00
19447;BME280;9862;49.462;11.054;2023-06-10T04:23:36;97807.97;;;17.90;100.00
19447;BME280;9862;49.462;11.054;2023-06-10T04:26:04;97806.06;;;17.85;100.00
19447;BME280;9862;49.462;11.054;2023-06-10T04:28:32;97804.75;;;17.88;100.00
19447;BME280;9862;49.462;11.054;2023-06-10T04:30:59;97804.22;;;17.91;100.00
19447;BME280;9862;49.462;11.054;2023-06-10T04:33:25;97800.50;;;18.02;100.00
19447;BME280;9862;49.462;11.054;2023-06-10T04:35:53;97802.50;;;18.27;100.00
19447;BME280;9862;49.462;11.054;2023-06-10T04:38:20;97800.06;;;18.25;100.00
19447;BME280;9862;49.462;11.054;2023-06-10T04:40:46;97802.22;;;18.28;100.00
19447;BME280;9862;49.462;11.054;2023-06-10T04:43:13;97799.31;;;18.40;100.00
19447;BME280;9862;49.462;11.054;2023-06-10T04:45:42;97797.69;;;18.34;100.00
19447;BME280;9862;49.462;11.054;2023-06-10T04:48:10;97802.28;;;18.34;100.00
19447;BME280;9862;49.462;11.054;2023-06-10T04:50:37;97803.63;;;18.41;100.00
19447;BME280;9862;49.462;11.054;2023-06-10T04:53:04;97797.72;;;18.49;100.00
19447;BME280;9862;49.462;11.054;2023-06-10T04:55:31;97794.78;;;18.56;100.00
19447;BME280;9862;49.462;11.054;2023-06-10T04:57:58;97794.28;;;18.64;100.00
19447;BME280;9862;49.462;11.054;2023-06-10T05:00:25;97798.09;;;18.78;100.00
19447;BME280;9862;49.462;11.054;2023-06-10T05:02:53;97796.50;;;18.87;100.00
19447;BME280;9862;49.462;11.054;2023-06-10T05:05:19;97796.75;;;18.81;100.00
19447;BME280;9862;49.462;11.054;2023-06-10T05:07:46;97798.91;;;18.79;100.00
19447;BME280;9862;49.462;11.054;2023-06-10T05:10:12;97799.19;;;18.72;100.00
19447;BME280;9862;49.462;11.054;2023-06-10T05:12:40;97798.63;;;18.75;100.00
19447;BME280;9862;49.462;11.054;2023-06-10T05:15:07;97807.28;;;18.87;100.00
19447;BME280;9862;49.462;11.054;2023-06-10T05:17:34;97796.50;;;18.98;100.00
19447;BME280;9862;49.462;11.054;2023-06-10T05:20:03;97801.34;;;18.96;100.00
19447;BME280;9862;49.462;11.054;2023-06-10T05:22:29;97798.66;;;18.96;100.00
19447;BME280;9862;49.462;11.054;2023-06-10T05:24:56;97800.56;;;18.95;100.00
19447;BME280;9862;49.462;11.054;2023-06-10T05:27:23;97799.72;;;19.00;100.00
19447;BME280;9862;49.462;11.054;2023-06-10T05:29:50;97797.84;;;19.10;100.00
19447;BME280;9862;49.462;11.054;2023-06-10T05:32:17;97807.84;;;19.25;100.00
19447;BME280;9862;49.462;11.054;2023-06-10T05:34:44;97807.84;;;19.45;100.00
19447;BME280;9862;49.462;11.054;2023-06-10T05:37:12;97807.84;;;19.51;100.00
19447;BME280;9862;49.462;11.054;2023-06-10T05:39:39;97804.06;;;19.52;100.00
19447;BME280;9862;49.462;11.054;2023-06-10T05:42:07;97811.09;;;19.58;100.00
19447;BME280;9862;49.462;11.054;2023-06-10T05:44:33;97824.59;;;19.58;100.00
19447;BME280;9862;49.462;11.054;2023-06-10T05:47:00;97825.94;;;19.50;100.00
19447;BME280;9862;49.462;11.054;2023-06-10T05:49:27;97828.91;;;19.43;100.00
19447;BME280;9862;49.462;11.054;2023-06-10T05:51:53;97819.69;;;19.90;100.00
19447;BME280;9862;49.462;11.054;2023-06-10T05:54:22;97819.00;;;20.34;100.00
19447;BME280;9862;49.462;11.054;2023-06-10T05:56:49;97816.28;;;20.39;100.00
19447;BME280;9862;49.462;11.054;2023-06-10T05:59:16;97811.44;;;20.26;100.00
19447;BME280;9862;49.462;11.054;2023-06-10T06:01:42;97815.00;;;20.21;100.00
19447;BME280;9862;49.462;11.054;2023-06-10T06:04:09;97818.50;;;20.17;100.00
19447;BME280;9862;49.462;11.054;2023-06-10T06:06:38;97821.53;;;20.05;100.00
19447;BME280;9862;49.462;11.054;2023-06-10T06:09:05;97818.84;;;20.00;100.00
19447;BME280;9862;49.462;11.054;2023-06-10T06:11:33;97819.09;;;20.04;100.00
19447;BME280;9862;49.462;11.054;2023-06-10T06:14:00;97814.22;;;20.11;100.00
19447;BME280;9862;49.462;11.054;2023-06-10T06:16:27;97816.84;;;20.26;100.00
19447;BME280;9862;49.462;11.054;2023-06-10T06:18:53;97813.09;;;20.27;100.00
19447;BME280;9862;49.462;11.054;2023-06-10T06:21:20;97803.56;;;20.35;100.00
19447;BME280;9862;49.462;11.054;2023-06-10T06:23:46;97812.50;;;20.35;100.00
19447;BME280;9862;49.462;11.054;2023-06-10T06:26:13;97809.78;;;20.35;100.00
19447;BME280;9862;49.462;11.054;2023-06-10T06:28:41;97822.22;;;20.36;100.00
19447;BME280;9862;49.462;11.054;2023-06-10T06:31:07;97819.50;;;20.41;100.00
19447;BME280;9862;49.462;11.054;2023-06-10T06:33:34;97816.28;;;20.44;100.00
19447;BME280;9862;49.462;11.054;2023-06-10T06:36:01;97815.47;;;20.44;100.00
19447;BME280;9862;49.462;11.054;2023-06-10T06:38:27;97817.88;;;20.45;100.00
19447;BME280;9862;49.462;11.054;2023-06-10T06:40:54;97815.09;;;20.66;100.00
19447;BME280;9862;49.462;11.054;2023-06-10T06:43:20;97810.53;;;21.05;100.00
19447;BME280;9862;49.462;11.054;2023-06-10T06:45:48;97809.84;;;21.24;100.00
19447;BME280;9862;49.462;11.054;2023-06-10T06:48:15;97809.88;;;21.19;100.00
19447;BME280;9862;49.462;11.054;2023-06-10T06:50:42;97813.53;;;21.38;100.00
19447;BME280;9862;49.462;11.054;2023-06-10T06:53:09;97811.03;;;21.76;100.00
19447;BME280;9862;49.462;11.054;2023-06-10T06:55:35;97821.44;;;21.63;100.00
19447;BME280;9862;49.462;11.054;2023-06-10T06:58:02;97813.94;;;21.84;100.00
19447;BME280;9862;49.462;11.054;2023-06-10T07:00:29;97818.06;;;21.77;100.00
19447;BME280;9862;49.462;11.054;2023-06-10T07:02:57;97814.44;;;21.57;100.00
19447;BME280;9862;49.462;11.054;2023-06-10T07:05:24;97818.25;;;21.56;100.00
19447;BME280;9862;49.462;11.054;2023-06-10T07:07:52;97814.50;;;21.52;100.00
19447;BME280;9862;49.462;11.054;2023-06-10T07:10:20;97818.94;;;21.43;100.00
19447;BME280;9862;49.462;11.054;2023-06-10T07:12:47;97816.97;;;21.49;100.00
19447;BME280;9862;49.462;11.054;2023-06-10T07:15:14;97812.25;;;21.59;100.00
19447;BME280;9862;49.462;11.054;2023-06-10T07:17:40;97820.84;;;21.71;100.00
19447;BME280;9862;49.462;11.054;2023-06-10T07:20:09;97809.69;;;22.02;100.00
19447;BME280;9862;49.462;11.054;2023-06-10T07:22:36;97813.41;;;22.11;100.00
19447;BME280;9862;49.462;11.054;2023-06-10T07:25:04;97817.78;;;22.31;100.00
19447;BME280;9862;49.462;11.054;2023-06-10T07:27:31;97805.53;;;22.34;100.00
19447;BME280;9862;49.462;11.054;2023-06-10T07:29:58;97811.53;;;22.31;100.00
19447;BME280;9862;49.462;11.054;2023-06-10T07:32:26;97808.41;;;22.42;100.00
19447;BME280;9862;49.462;11.054;2023-06-10T07:34:53;97814.69;;;22.38;100.00
19447;BME280;9862;49.462;11.054;2023-06-10T07:37:20;97814.63;;;22.43;100.00
19447;BME280;9862;49.462;11.054;2023-06-10T07:39:47;97808.28;;;22.52;100.00
19447;BME280;9862;49.462;11.054;2023-06-10T07:42:14;97807.47;;;22.52;100.00
19447;BME280;9862;49.462;11.054;2023-06-10T07:44:40;97801.31;;;22.65;100.00
19447;BME280;9862;49.462;11.054;2023-06-10T07:47:07;97806.59;;;22.75;100.00
19447;BME280;9862;49.462;11.054;2023-06-10T07:49:34;97814.09;;;22.83;100.00
19447;BME280;9862;49.462;11.054;2023-06-10T07:52:00;97805.81;;;22.94;100.00
19447;BME280;9862;49.462;11.054;2023-06-10T07:54:28;97801.50;;;23.11;100.00
19447;BME280;9862;49.462;11.054;2023-06-10T07:56:55;97808.19;;;23.00;100.00
19447;BME280;9862;49.462;11.054;2023-06-10T07:59:22;97808.47;;;22.99;100.00
19447;BME280;9862;49.462;11.054;2023-06-10T08:01:48;97805.38;;;23.05;100.00
19447;BME280;9862;49.462;11.054;2023-06-10T08:04:15;97806.19;;;23.06;100.00
19447;BME280;9862;49.462;11.054;2023-06-10T08:06:41;97807.06;;;23.20;100.00
19447;BME280;9862;49.462;11.054;2023-06-10T08:09:08;97797.50;;;23.23;100.00
19447;BME280;9862;49.462;11.054;2023-06-10T08:11:36;97791.28;;;23.22;100.00
19447;BME280;9862;49.462;11.054;2023-06-10T08:14:03;97794.31;;;23.34;100.00
19447;BME280;9862;49.462;11.054;2023-06-10T08:16:29;97792.22;;;23.31;100.00
19447;BME280;9862;49.462;11.054;2023-06-10T08:18:56;97792.41;;;23.35;100.00
19447;BME280;9862;49.462;11.054;2023-06-10T08:21:22;97791.53;;;23.39;100.00
19447;BME280;9862;49.462;11.054;2023-06-10T08:23:52;97795.25;;;23.43;100.00
19447;BME280;9862;49.462;11.054;2023-06-10T08:26:19;97796.06;;;23.44;100.00
19447;BME280;9862;49.462;11.054;2023-06-10T08:28:47;97788.09;;;23.66;100.00
19447;BME280;9862;49.462;11.054;2023-06-10T08:31:14;97784.88;;;23.64;100.00
19447;BME280;9862;49.462;11.054;2023-06-10T08:33:41;97785.78;;;23.60;100.00
19447;BME280;9862;49.462;11.054;2023-06-10T08:36:08;97782.88;;;23.70;100.00
19447;BME280;9862;49.462;11.054;2023-06-10T08:38:35;97782.25;;;23.73;100.00
19447;BME280;9862;49.462;11.054;2023-06-10T08:41:04;97782.97;;;23.92;100.00
19447;BME280;9862;49.462;11.054;2023-06-10T08:43:33;97793.59;;;23.94;100.00
19447;BME280;9862;49.462;11.054;2023-06-10T08:46:02;97784.09;;;23.91;100.00
19447;BME280;9862;49.462;11.054;2023-06-10T08:48:30;97782.72;;;23.94;100.00
19447;BME280;9862;49.462;11.054;2023-06-10T08:50:57;97789.88;;;24.04;100.00
19447;BME280;9862;49.462;11.054;2023-06-10T08:53:26;97783.91;;;24.29;100.00
19447;BME280;9862;49.462;11.054;2023-06-10T08:55:54;97776.34;;;24.26;100.00
19447;BME280;9862;49.462;11.054;2023-06-10T08:58:24;97777.06;;;24.32;100.00
19447;BME280;9862;49.462;11.054;2023-06-10T09:00:52;97790.13;;;24.30;100.00
19447;BME280;9862;49.462;11.054;2023-06-10T09:03:21;97779.88;;;24.40;100.00
19447;BME280;9862;49.462;11.054;2023-06-10T09:05:49;97780.91;;;24.44;100.00
19447;BME280;9862;49.462;11.054;2023-06-10T09:08:16;97770.28;;;24.57;100.00
19447;BME280;9862;49.462;11.054;2023-06-10T09:10:43;97775.19;;;24.68;100.00
19447;BME280;9862;49.462;11.054;2023-06-10T09:13:10;97778.72;;;24.69;100.00
19447;BME280;9862;49.462;11.054;2023-06-10T09:15:36;97777.19;;;24.76;100.00
19447;BME280;9862;49.462;11.054;2023-06-10T09:18:05;97775.75;;;24.79;100.00
19447;BME280;9862;49.462;11.054;2023-06-10T09:20:33;97781.22;;;24.79;100.00
19447;BME280;9862;49.462;11.054;2023-06-10T09:23:00;97781.03;;;24.75;100.00
19447;BME280;9862;49.462;11.054;2023-06-10T09:25:35;97779.59;;;24.78;100.00
19447;BME280;9862;49.462;11.054;2023-06-10T09:28:02;97775.66;;;24.84;100.00
19447;BME280;9862;49.462;11.054;2023-06-10T09:30:30;97773.13;;;24.88;100.00
19447;BME280;9862;49.462;11.054;2023-06-10T09:32:59;97783.50;;;24.86;100.00
19447;BME280;9862;49.462;11.054;2023-06-10T09:35:26;97783.44;;;24.99;100.00
19447;BME280;9862;49.462;11.054;2023-06-10T09:37:56;97779.13;;;24.98;100.00
19447;BME280;9862;49.462;11.054;2023-06-10T09:40:23;97773.81;;;24.93;100.00
19447;BME280;9862;49.462;11.054;2023-06-10T09:42:53;97778.91;;;25.08;100.00
19447;BME280;9862;49.462;11.054;2023-06-10T09:45:21;97779.53;;;25.28;100.00
19447;BME280;9862;49.462;11.054;2023-06-10T09:47:51;97779.03;;;25.26;100.00
19447;BME280;9862;49.462;11.054;2023-06-10T09:50:18;97782.00;;;25.38;100.00
19447;BME280;9862;49.462;11.054;2023-06-10T09:52:46;97772.59;;;25.44;100.00
19447;BME280;9862;49.462;11.054;2023-06-10T09:55:14;97777.94;;;25.49;100.00
19447;BME280;9862;49.462;11.054;2023-06-10T09:57:41;97775.84;;;25.55;100.00
19447;BME280;9862;49.462;11.054;2023-06-10T10:00:11;97771.75;;;25.66;100.00
19447;BME280;9862;49.462;11.054;2023-06-10T10:02:44;97779.75;;;25.62;100.00
19447;BME280;9862;49.462;11.054;2023-06-10T10:05:12;97772.53;;;25.66;100.00
19447;BME280;9862;49.462;11.054;2023-06-10T10:07:39;97775.28;;;25.66;100.00
19447;BME280;9862;49.462;11.054;2023-06-10T10:10:06;97775.59;;;25.65;100.00
19447;BME280;9862;49.462;11.054;2023-06-10T10:12:36;97777.03;;;25.62;100.00
19447;BME280;9862;49.462;11.054;2023-06-10T10:15:03;97775.28;;;25.66;100.00
19447;BME280;9862;49.462;11.054;2023-06-10T10:17:33;97778.00;;;25.66;100.00
19447;BME280;9862;49.462;11.054;2023-06-10T10:20:02;97771.56;;;25.62;100.00
19447;BME280;9862;49.462;11.054;2023-06-10T10:22:33;97768.97;;;25.57;100.00
19447;BME280;9862;49.462;11.054;2023-06-10T10:25:02;97773.25;;;25.72;100.00
19447;BME280;9862;49.462;11.054;2023-06-10T10:27:38;97776.78;;;25.73;100.00
19447;BME280;9862;49.462;11.054;2023-06-10T10:30:08;97757.78;;;25.90;100.00
19447;BME280;9862;49.462;11.054;2023-06-10T10:32:40;97759.88;;;25.93;100.00
19447;BME280;9862;49.462;11.054;2023-06-10T10:35:10;97755.72;;;26.04;100.00
19447;BME280;9862;49.462;11.054;2023-06-10T10:37:39;97754.75;;;25.91;100.00
19447;BME280;9862;49.462;11.054;2023-06-10T10:40:07;97757.47;;;25.91;100.00
19447;BME280;9862;49.462;11.054;2023-06-10T10:42:36;97757.34;;;26.05;100.00
19447;BME280;9862;49.462;11.054;2023-06-10T10:45:06;97757.41;;;26.22;100.00
19447;BME280;9862;49.462;11.054;2023-06-10T10:47:34;97753.53;;;26.23;100.00
19447;BME280;9862;49.462;11.054;2023-06-10T10:50:13;97751.47;;;26.29;100.00
19447;BME280;9862;49.462;11.054;2023-06-10T10:52:52;97767.91;;;26.38;100.00
19447;BME280;9862;49.462;11.054;2023-06-10T10:55:20;97760.38;;;26.52;100.00
19447;BME280;9862;49.462;11.054;2023-06-10T10:57:56;97758.16;;;26.54;100.00
19447;BME280;9862;49.462;11.054;2023-06-10T11:00:30;97772.09;;;26.52;100.00
19447;BME280;9862;49.462;11.054;2023-06-10T11:03:05;97770.75;;;26.33;100.00
19447;BME280;9862;49.462;11.054;2023-06-10T11:05:38;97765.25;;;26.24;100.00
19447;BME280;9862;49.462;11.054;2023-06-10T11:08:05;97760.59;;;26.07;100.00
19447;BME280;9862;49.462;11.054;2023-06-10T11:10:34;97769.53;;;25.99;100.00
19447;BME280;9862;49.462;11.054;2023-06-10T11:13:07;97762.31;;;26.03;100.00
19447;BME280;9862;49.462;11.054;2023-06-10T11:15:38;97761.88;;;26.18;100.00
19447;BME280;9862;49.462;11.054;2023-06-10T11:18:14;97767.84;;;26.29;100.00
19447;BME280;9862;49.462;11.054;2023-06-10T11:20:55;97760.53;;;26.38;100.00
19447;BME280;9862;49.462;11.054;2023-06-10T11:23:29;97758.91;;;26.37;100.00
19447;BME280;9862;49.462;11.054;2023-06-10T11:26:16;97766.25;;;26.28;100.00
19447;BME280;9862;49.462;11.054;2023-06-10T11:29:05;97767.50;;;26.22;100.00
19447;BME280;9862;49.462;11.054;2023-06-10T11:31:36;97764.28;;;26.20;100.00
19447;BME280;9862;49.462;11.054;2023-06-10T11:34:05;97764.13;;;26.16;100.00
19447;BME280;9862;49.462;11.054;2023-06-10T11:36:33;97756.94;;;26.29;100.00
19447;BME280;9862;49.462;11.054;2023-06-10T11:39:02;97762.72;;;26.28;100.00
19447;BME280;9862;49.462;11.054;2023-06-10T11:41:30;97747.47;;;26.27;100.00
19447;BME280;9862;49.462;11.054;2023-06-10T11:44:01;97755.69;;;26.44;98.93
19447;BME280;9862;49.462;11.054;2023-06-10T11:46:28;97749.16;;;26.45;100.00
19447;BME280;9862;49.462;11.054;2023-06-10T11:48:55;97746.41;;;26.62;100.00
19447;BME280;9862;49.462;11.054;2023-06-10T11:51:26;97739.38;;;26.78;97.53
19447;BME280;9862;49.462;11.054;2023-06-10T11:53:54;97732.44;;;26.72;97.01
19447;BME280;9862;49.462;11.054;2023-06-10T11:56:21;97735.50;;;26.79;99.69
19447;BME280;9862;49.462;11.054;2023-06-10T11:58:53;97731.31;;;26.82;99.73
19447;BME280;9862;49.462;11.054;2023-06-10T12:01:22;97740.50;;;26.77;98.38
19447;BME280;9862;49.462;11.054;2023-06-10T12:03:56;97736.31;;;26.71;98.25
19447;BME280;9862;49.462;11.054;2023-06-10T12:06:23;97744.81;;;26.61;98.29
19447;BME280;9862;49.462;11.054;2023-06-10T12:08:50;97744.34;;;26.59;100.00
19447;BME280;9862;49.462;11.054;2023-06-10T12:11:16;97746.72;;;26.52;100.00
19447;BME280;9862;49.462;11.054;2023-06-10T12:13:46;97746.09;;;26.81;97.30
19447;BME280;9862;49.462;11.054;2023-06-10T12:16:15;97739.84;;;26.80;96.60
19447;BME280;9862;49.462;11.054;2023-06-10T12:18:43;97732.44;;;26.90;94.00
19447;BME280;9862;49.462;11.054;2023-06-10T12:21:18;97742.09;;;26.96;93.48
19447;BME280;9862;49.462;11.054;2023-06-10T12:24:05;97736.63;;;26.96;93.78
19447;BME280;9862;49.462;11.054;2023-06-10T12:26:36;97738.09;;;26.93;93.97
19447;BME280;9862;49.462;11.054;2023-06-10T12:29:14;97739.84;;;26.80;94.50
19447;BME280;9862;49.462;11.054;2023-06-10T12:31:58;97729.56;;;26.77;96.17
19447;BME280;9862;49.462;11.054;2023-06-10T12:34:35;97738.56;;;26.87;94.61
19447;BME280;9862;49.462;11.054;2023-06-10T12:37:02;97723.94;;;26.91;91.62
19447;BME280;9862;49.462;11.054;2023-06-10T12:39:30;97722.50;;;26.94;93.06
19447;BME280;9862;49.462;11.054;2023-06-10T12:41:57;97723.44;;;26.98;93.85
19447;BME280;9862;49.462;11.054;2023-06-10T12:44:34;97725.72;;;27.13;92.71
19447;BME280;9862;49.462;11.054;2023-06-10T12:47:07;97715.75;;;27.17;93.65
19447;BME280;9862;49.462;11.054;2023-06-10T12:49:36;97714.13;;;27.16;95.18
19447;BME280;9862;49.462;11.054;2023-06-10T12:52:04;97708.78;;;27.37;94.25
19447;BME280;9862;49.462;11.054;2023-06-10T12:54:31;97715.41;;;27.27;91.77
19447;BME280;9862;49.462;11.054;2023-06-10T12:56:58;97712.34;;;27.12;92.54